Time;durP1;ratioP1;P1;durP2;ratioP2;P2;SDS_P1;SDS_P2;PMS_P1;PMS_P2;Temp;Humidity;BMP_temperature;BMP_pressure;BME280_temperature;BME280_humidity;BME280_pressure;Samples;Min_cycle;Max_cycle;Signal;HPM_P1;HPM_P2
2023/02/14 00:00:17;;;;;;;;;;;;;;;;;;5024557;28;20008;-85
2023/02/14 00:02:42;;;;;;;;;;;;;;;;;;5035579;28;19909;-85
2023/02/14 00:05:08;;;;;;;;;;;;;;;;;;5043334;28;20044;-86
2023/02/14 00:07:34;;;;;;;;;;;;;;;;;;5039806;28;19909;-84
2023/02/14 00:10:00;;;;;;;;;;;;;;;;;;5041249;28;20434;-85
2023/02/14 00:12:26;;;;;;;;;;;;;;;;;;5044934;28;19915;-86
2023/02/14 00:17:37;;;;;;;;;;;;;;;;;;5051823;28;19920;-84
2023/02/14 00:20:02;;;;;;;;;;;;;;;;;;5042442;28;20137;-85
2023/02/14 00:22:28;;;;;;;;;;;;;;;;;;5041871;28;20393;-85
2023/02/14 00:24:54;;;;;;;;;;;;;;;;;;5041229;28;19912;-84
2023/02/14 00:27:20;;;;;;;;;;;;;;;;;;5041598;28;20322;-84
2023/02/14 00:29:46;;;;;;;;;;;;;;;;;;5021037;28;19942;-83
2023/02/14 00:32:12;;;;;;;;;;;;;;;;;;5040542;28;19924;-84
2023/02/14 00:34:38;;;;;;;;;;;;;;;;;;5027995;28;19917;-84
2023/02/14 00:37:04;;;;;;;;;;;;;;;;;;5039105;28;20502;-85
2023/02/14 00:39:30;;;;;;;;;;;;;;;;;;5022449;28;19923;-85
2023/02/14 00:41:55;;;;;;;;;;;;;;;;;;5041284;28;19936;-85
2023/02/14 00:44:21;;;;;;;;;;;;;;;;;;5040138;28;19917;-85
2023/02/14 00:46:47;;;;;;;;;;;;;;;;;;5023297;28;19977;-83
2023/02/14 00:49:13;;;;;;;;;;;;;;;;;;5025187;28;19913;-83
2023/02/14 00:51:39;;;;;;;;;;;;;;;;;;5024941;28;20367;-82
2023/02/14 00:54:05;;;;;;;;;;;;;;;;;;5037107;28;19959;-83
2023/02/14 00:56:31;;;;;;;;;;;;;;;;;;5019518;28;19917;-83
2023/02/14 00:58:57;;;;;;;;;;;;;;;;;;5004490;28;19922;-82
2023/02/14 01:01:23;;;;;;;;;;;;;;;;;;5028423;28;20459;-82
2023/02/14 01:03:49;;;;;;;;;;;;;;;;;;5035827;28;19967;-82
2023/02/14 01:06:14;;;;;;;;;;;;;;;;;;5036552;28;19975;-82
2023/02/14 01:08:40;;;;;;;;;;;;;;;;;;5031571;28;19924;-82
2023/02/14 01:11:06;;;;;;;;;;;;;;;;;;5037984;28;19909;-82
2023/02/14 01:13:32;;;;;;;;;;;;;;;;;;5017542;28;20290;-81
2023/02/14 01:15:58;;;;;;;;;;;;;;;;;;5035740;28;19913;-83
2023/02/14 01:18:24;;;;;;;;;;;;;;;;;;5028081;28;19932;-82
2023/02/14 01:20:50;;;;;;;;;;;;;;;;;;5032248;28;19936;-83
2023/02/14 01:23:16;;;;;;;;;;;;;;;;;;5009640;28;19921;-83
2023/02/14 01:25:42;;;;;;;;;;;;;;;;;;5037305;28;19916;-83
2023/02/14 01:28:08;;;;;;;;;;;;;;;;;;5036083;28;19913;-83
2023/02/14 01:30:34;;;;;;;;;;;;;;;;;;5036847;28;19909;-82
2023/02/14 01:33:00;;;;;;;;;;;;;;;;;;5036611;28;19929;-82
2023/02/14 01:35:26;;;;;;;;;;;;;;;;;;5036377;28;19976;-82
2023/02/14 01:37:52;;;;;;;;;;;;;;;;;;5035978;28;19983;-83
2023/02/14 01:40:18;;;;;;;;;;;;;;;;;;5034752;28;19917;-82
2023/02/14 01:42:43;;;;;;;;;;;;;;;;;;5036812;28;19916;-82
2023/02/14 01:45:09;;;;;;;;;;;;;;;;;;5035569;28;19913;-82
2023/02/14 01:47:35;;;;;;;;;;;;;;;;;;5017463;28;19917;-82
2023/02/14 01:50:01;;;;;;;;;;;;;;;;;;5017404;28;20364;-81
2023/02/14 01:52:27;;;;;;;;;;;;;;;;;;5021112;28;19913;-83
2023/02/14 01:54:53;;;;;;;;;;;;;;;;;;5031651;28;20298;-83
2023/02/14 01:57:19;;;;;;;;;;;;;;;;;;5025134;28;19960;-84
2023/02/14 01:59:45;;;;;;;;;;;;;;;;;;5027860;28;19932;-84
2023/02/14 02:02:11;;;;;;;;;;;;;;;;;;5034047;28;19941;-84
2023/02/14 02:04:36;;;;;;;;;;;;;;;;;;5018704;28;19920;-84
2023/02/14 02:07:02;;;;;;;;;;;;;;;;;;5023994;28;19913;-84
2023/02/14 02:09:28;;;;;;;;;;;;;;;;;;5034855;28;20000;-83
2023/02/14 02:11:54;;;;;;;;;;;;;;;;;;5035138;28;19909;-83
2023/02/14 02:14:20;;;;;;;;;;;;;;;;;;5029588;28;20347;-83
2023/02/14 02:16:46;;;;;;;;;;;;;;;;;;5052914;28;19908;-85
2023/02/14 02:19:12;;;;;;;;;;;;;;;;;;5048012;28;20605;-85
2023/02/14 02:21:38;;;;;;;;;;;;;;;;;;5037603;28;19908;-84
2023/02/14 02:24:03;;;;;;;;;;;;;;;;;;5040586;28;19955;-84
2023/02/14 02:26:29;;;;;;;;;;;;;;;;;;5034801;28;21316;-84
2023/02/14 02:28:55;;;;;;;;;;;;;;;;;;5035500;28;19918;-84
2023/02/14 02:31:21;;;;;;;;;;;;;;;;;;5018944;28;20380;-83
2023/02/14 02:33:47;;;;;;;;;;;;;;;;;;5034422;28;19913;-83
2023/02/14 02:36:14;;;;;;;;;;;;;;;;;;5032591;28;19999;-84
2023/02/14 02:38:42;;;;;;;;;;;;;;;;;;5032518;28;19960;-85
2023/02/14 02:41:08;;;;;;;;;;;;;;;;;;5034282;28;19959;-85
2023/02/14 02:43:34;;;;;;;;;;;;;;;;;;5038687;28;19917;-82
2023/02/14 02:48:44;;;;;;;;;;;;;;;;;;5030655;28;20271;-82
2023/02/14 02:53:55;;;;;;;;;;;;;;;;;;5050510;28;19955;-82
2023/02/14 02:59:06;;;;;;;;;;;;;;;;;;5035052;28;19937;-82
2023/02/14 03:01:31;;;;;;;;;;;;;;;;;;5032645;28;20363;-83
2023/02/14 03:06:42;;;;;;;;;;;;;;;;;;5032006;28;19920;-83
2023/02/14 03:09:08;;;;;;;;;;;;;;;;;;5032684;28;19913;-83
2023/02/14 03:11:34;;;;;;;;;;;;;;;;;;5032998;28;19909;-83
2023/02/14 03:13:59;;;;;;;;;;;;;;;;;;5023890;28;19921;-84
2023/02/14 03:16:25;;;;;;;;;;;;;;;;;;5019577;28;19917;-84
2023/02/14 03:21:36;;;;;;;;;;;;;;;;;;5033859;28;20350;-85
2023/02/14 03:24:02;;;;;;;;;;;;;;;;;;5033545;28;19905;-85
2023/02/14 03:26:28;;;;;;;;;;;;;;;;;;5015169;28;20008;-85
2023/02/14 03:28:54;;;;;;;;;;;;;;;;;;5032711;28;20334;-85
2023/02/14 03:31:19;;;;;;;;;;;;;;;;;;5032759;28;19932;-85
2023/02/14 03:33:45;;;;;;;;;;;;;;;;;;5014545;28;20004;-85
2023/02/14 03:36:11;;;;;;;;;;;;;;;;;;5034256;28;19909;-85
2023/02/14 03:38:37;;;;;;;;;;;;;;;;;;5018558;28;20329;-85
2023/02/14 03:41:03;;;;;;;;;;;;;;;;;;5036201;28;19910;-85
2023/02/14 03:43:29;;;;;;;;;;;;;;;;;;5018408;28;20402;-85
2023/02/14 03:45:55;;;;;;;;;;;;;;;;;;5018538;28;19909;-85
2023/02/14 03:48:21;;;;;;;;;;;;;;;;;;5017951;28;20004;-85
2023/02/14 03:50:47;;;;;;;;;;;;;;;;;;5034840;28;19984;-85
2023/02/14 03:53:12;;;;;;;;;;;;;;;;;;5036164;28;19909;-85
2023/02/14 03:55:38;;;;;;;;;;;;;;;;;;5037288;28;19917;-86
2023/02/14 03:58:04;;;;;;;;;;;;;;;;;;5018993;28;19916;-86
2023/02/14 04:00:30;;;;;;;;;;;;;;;;;;5018980;28;20011;-85
2023/02/14 04:02:56;;;;;;;;;;;;;;;;;;5019391;28;19913;-84
2023/02/14 04:05:22;;;;;;;;;;;;;;;;;;5038077;28;20426;-84
2023/02/14 04:07:48;;;;;;;;;;;;;;;;;;5038979;28;19909;-85
2023/02/14 04:10:14;;;;;;;;;;;;;;;;;;5038086;28;19909;-84
2023/02/14 04:12:39;;;;;;;;;;;;;;;;;;5044079;28;19966;-84
2023/02/14 04:15:05;;;;;;;;;;;;;;;;;;5040020;28;19915;-84
2023/02/14 04:20:16;;;;;;;;;;;;;;;;;;5038548;28;19936;-84
2023/02/14 04:22:42;;;;;;;;;;;;;;;;;;5044706;28;20363;-84
2023/02/14 04:25:07;;;;;;;;;;;;;;;;;;5040099;28;19910;-85
2023/02/14 04:27:33;;;;;;;;;;;;;;;;;;5037754;28;19913;-84
2023/02/14 04:29:59;;;;;;;;;;;;;;;;;;5037116;28;19917;-84
2023/02/14 04:32:25;;;;;;;;;;;;;;;;;;5040512;28;19920;-84
2023/02/14 04:34:51;;;;;;;;;;;;;;;;;;5042853;28;20015;-84
2023/02/14 04:37:17;;;;;;;;;;;;;;;;;;5034920;28;19914;-84
2023/02/14 04:39:43;;;;;;;;;;;;;;;;;;5035526;28;20402;-83
2023/02/14 04:42:09;;;;;;;;;;;;;;;;;;5036856;28;20340;-83
2023/02/14 04:44:37;;;;;;;;;;;;;;;;;;5034894;28;19928;-83
2023/02/14 04:47:02;;;;;;;;;;;;;;;;;;5034278;28;19914;-84
2023/02/14 04:49:28;;;;;;;;;;;;;;;;;;5035070;28;19975;-84
2023/02/14 04:51:54;;;;;;;;;;;;;;;;;;5048928;28;19913;-86
2023/02/14 04:54:20;;;;;;;;;;;;;;;;;;5047584;28;19909;-86
2023/02/14 04:56:46;;;;;;;;;;;;;;;;;;5036152;28;19936;-85
2023/02/14 04:59:13;;;;;;;;;;;;;;;;;;5012919;28;20003;-85
2023/02/14 05:01:39;;;;;;;;;;;;;;;;;;5033920;28;20329;-85
2023/02/14 05:04:05;;;;;;;;;;;;;;;;;;5035363;28;19909;-85
2023/02/14 05:06:31;;;;;;;;;;;;;;;;;;5034112;28;19963;-85
2023/02/14 05:08:57;;;;;;;;;;;;;;;;;;5036315;28;19916;-86
2023/02/14 05:11:23;;;;;;;;;;;;;;;;;;5043051;28;19913;-86
2023/02/14 05:13:49;;;;;;;;;;;;;;;;;;5038306;28;20319;-86
2023/02/14 05:16:15;;;;;;;;;;;;;;;;;;5034730;28;19986;-86
2023/02/14 05:18:41;;;;;;;;;;;;;;;;;;5018840;28;19921;-85
2023/02/14 05:21:07;;;;;;;;;;;;;;;;;;5018711;28;19913;-86
2023/02/14 05:23:33;;;;;;;;;;;;;;;;;;5018352;28;20355;-82
2023/02/14 05:25:59;;;;;;;;;;;;;;;;;;5015700;28;19971;-83
2023/02/14 05:28:24;;;;;;;;;;;;;;;;;;5018613;28;19910;-83
2023/02/14 05:30:51;;;;;;;;;;;;;;;;;;5026456;28;20338;-86
2023/02/14 05:33:19;;;;;;;;;;;;;;;;;;5042400;28;19917;-84
2023/02/14 05:35:45;;;;;;;;;;;;;;;;;;5033469;28;19913;-84
2023/02/14 05:38:12;;;;;;;;;;;;;;;;;;5034249;28;19920;-86
2023/02/14 05:40:38;;;;;;;;;;;;;;;;;;5015763;28;20409;-85
2023/02/14 05:43:04;;;;;;;;;;;;;;;;;;5033814;28;19913;-85
2023/02/14 05:45:30;;;;;;;;;;;;;;;;;;5016418;28;19908;-85
2023/02/14 05:47:56;;;;;;;;;;;;;;;;;;5034604;28;19933;-86
2023/02/14 05:50:22;;;;;;;;;;;;;;;;;;5035263;28;19956;-85
2023/02/14 05:52:47;;;;;;;;;;;;;;;;;;5036692;28;20371;-84
2023/02/14 05:55:13;;;;;;;;;;;;;;;;;;5037772;28;19909;-85
2023/02/14 05:57:40;;;;;;;;;;;;;;;;;;5036166;28;20326;-84
2023/02/14 06:00:06;;;;;;;;;;;;;;;;;;5017753;28;19920;-85
2023/02/14 06:02:31;;;;;;;;;;;;;;;;;;5033590;28;19909;-85
2023/02/14 06:04:57;;;;;;;;;;;;;;;;;;5017410;28;19910;-85
2023/02/14 06:07:23;;;;;;;;;;;;;;;;;;5032704;28;19921;-85
2023/02/14 06:09:49;;;;;;;;;;;;;;;;;;5036823;28;20418;-84
2023/02/14 06:12:15;;;;;;;;;;;;;;;;;;5035767;28;20024;-85
2023/02/14 06:14:41;;;;;;;;;;;;;;;;;;5043916;28;19916;-84
2023/02/14 06:17:07;;;;;;;;;;;;;;;;;;5015764;28;20355;-84
2023/02/14 06:19:33;;;;;;;;;;;;;;;;;;5034086;28;19953;-85
2023/02/14 06:21:59;;;;;;;;;;;;;;;;;;5032209;28;19914;-85
2023/02/14 06:24:25;;;;;;;;;;;;;;;;;;5038937;28;20340;-85
2023/02/14 06:26:51;;;;;;;;;;;;;;;;;;5014793;28;19917;-85
2023/02/14 06:29:17;;;;;;;;;;;;;;;;;;5033485;28;19917;-84
2023/02/14 06:31:43;;;;;;;;;;;;;;;;;;5031541;28;20209;-83
2023/02/14 06:34:08;;;;;;;;;;;;;;;;;;5012001;28;19956;-83
2023/02/14 06:36:34;;;;;;;;;;;;;;;;;;5015792;28;19914;-83
2023/02/14 06:39:00;;;;;;;;;;;;;;;;;;5035298;28;19924;-82
2023/02/14 06:41:26;;;;;;;;;;;;;;;;;;5033069;28;19976;-82
2023/02/14 06:43:52;;;;;;;;;;;;;;;;;;5026582;28;19909;-82
2023/02/14 06:46:18;;;;;;;;;;;;;;;;;;5054483;28;20349;-82
2023/02/14 06:48:44;;;;;;;;;;;;;;;;;;5059428;28;20429;-82
2023/02/14 06:51:10;;;;;;;;;;;;;;;;;;5064550;28;19976;-82
2023/02/14 06:53:36;;;;;;;;;;;;;;;;;;5063503;28;19909;-83
2023/02/14 06:56:01;;;;;;;;;;;;;;;;;;5053003;28;19959;-83
2023/02/14 06:58:27;;;;;;;;;;;;;;;;;;5058710;28;20365;-83
2023/02/14 07:00:53;;;;;;;;;;;;;;;;;;5045611;28;19913;-83
2023/02/14 07:03:19;;;;;;;;;;;;;;;;;;5035672;28;19920;-81
2023/02/14 07:05:45;;;;;;;;;;;;;;;;;;5040057;28;19921;-82
2023/02/14 07:08:11;;;;;;;;;;;;;;;;;;5059156;28;19913;-82
2023/02/14 07:10:37;;;;;;;;;;;;;;;;;;5053709;28;20004;-82
2023/02/14 07:13:03;;;;;;;;;;;;;;;;;;5042037;28;19948;-82
2023/02/14 07:15:29;;;;;;;;;;;;;;;;;;5039294;28;19916;-83
2023/02/14 07:17:55;;;;;;;;;;;;;;;;;;5022270;28;19916;-82
2023/02/14 07:20:20;;;;;;;;;;;;;;;;;;5023199;28;20114;-82
2023/02/14 07:22:46;;;;;;;;;;;;;;;;;;5041793;28;19973;-82
2023/02/14 07:25:12;;;;;;;;;;;;;;;;;;5040337;28;19967;-82
2023/02/14 07:27:38;;;;;;;;;;;;;;;;;;5009850;28;19920;-82
2023/02/14 07:30:04;;;;;;;;;;;;;;;;;;5062228;28;19917;-82
2023/02/14 07:32:30;;;;;;;;;;;;;;;;;;5061579;28;19913;-82
2023/02/14 07:34:56;;;;;;;;;;;;;;;;;;5060323;28;20373;-82
2023/02/14 07:37:22;;;;;;;;;;;;;;;;;;5044059;28;19936;-82
2023/02/14 07:39:48;;;;;;;;;;;;;;;;;;5043152;28;19924;-84
2023/02/14 07:42:14;;;;;;;;;;;;;;;;;;5045279;28;19913;-84
2023/02/14 07:44:40;;;;;;;;;;;;;;;;;;5043074;28;19932;-83
2023/02/14 07:47:06;;;;;;;;;;;;;;;;;;5045508;28;20043;-85
2023/02/14 07:49:32;;;;;;;;;;;;;;;;;;5024678;28;19984;-85
2023/02/14 07:51:58;;;;;;;;;;;;;;;;;;5042274;28;19909;-85
2023/02/14 07:54:24;;;;;;;;;;;;;;;;;;5024373;28;19909;-85
2023/02/14 07:56:50;;;;;;;;;;;;;;;;;;5041623;28;19931;-84
2023/02/14 07:59:16;;;;;;;;;;;;;;;;;;5061613;28;19913;-86
2023/02/14 08:01:42;;;;;;;;;;;;;;;;;;5061151;28;19909;-82
2023/02/14 08:04:08;;;;;;;;;;;;;;;;;;5060293;28;19916;-83
2023/02/14 08:06:33;;;;;;;;;;;;;;;;;;5036772;28;19909;-82
2023/02/14 08:08:59;;;;;;;;;;;;;;;;;;5019574;28;19914;-83
2023/02/14 08:14:10;;;;;;;;;;;;;;;;;;5016914;28;19916;-83
2023/02/14 08:16:37;;;;;;;;;;;;;;;;;;5037168;28;20362;-84
2023/02/14 08:19:02;;;;;;;;;;;;;;;;;;5040781;28;20018;-83
2023/02/14 08:21:28;;;;;;;;;;;;;;;;;;5045199;28;20374;-84
2023/02/14 08:23:54;;;;;;;;;;;;;;;;;;5055748;28;19950;-81
2023/02/14 08:26:20;;;;;;;;;;;;;;;;;;5035993;28;19909;-81
2023/02/14 08:28:46;;;;;;;;;;;;;;;;;;5040576;28;20034;-81
2023/02/14 08:31:12;;;;;;;;;;;;;;;;;;5060655;28;19909;-82
2023/02/14 08:33:38;;;;;;;;;;;;;;;;;;5060544;28;19924;-82
2023/02/14 08:36:04;;;;;;;;;;;;;;;;;;5053476;28;19913;-83
2023/02/14 08:38:30;;;;;;;;;;;;;;;;;;5054727;28;19913;-83
2023/02/14 08:40:56;;;;;;;;;;;;;;;;;;5041604;28;19913;-82
2023/02/14 08:43:21;;;;;;;;;;;;;;;;;;5059798;28;19924;-82
2023/02/14 08:45:49;;;;;;;;;;;;;;;;;;5039638;28;20425;-82
2023/02/14 08:48:15;;;;;;;;;;;;;;;;;;5037820;28;19913;-82
2023/02/14 08:50:41;;;;;;;;;;;;;;;;;;5040098;28;20067;-82
2023/02/14 08:53:07;;;;;;;;;;;;;;;;;;5039422;28;20067;-82
2023/02/14 08:55:33;;;;;;;;;;;;;;;;;;5037602;28;20397;-82
2023/02/14 08:57:59;;;;;;;;;;;;;;;;;;5037362;28;20290;-83
2023/02/14 09:00:25;;;;;;;;;;;;;;;;;;5036282;28;19978;-82
2023/02/14 09:02:51;;;;;;;;;;;;;;;;;;5035573;28;19955;-83
2023/02/14 09:05:17;;;;;;;;;;;;;;;;;;5034275;28;20289;-82
2023/02/14 09:07:43;;;;;;;;;;;;;;;;;;5036239;28;19954;-82
2023/02/14 09:10:09;;;;;;;;;;;;;;;;;;5032986;28;19935;-83
2023/02/14 09:12:35;;;;;;;;;;;;;;;;;;5017834;28;19909;-83
2023/02/14 09:15:00;;;;;;;;;;;;;;;;;;5021340;28;19909;-82
2023/02/14 09:17:26;;;;;;;;;;;;;;;;;;5038515;28;19949;-82
2023/02/14 09:19:52;;;;;;;;;;;;;;;;;;5036679;28;19932;-82
2023/02/14 09:22:19;;;;;;;;;;;;;;;;;;5040333;28;19999;-82
2023/02/14 09:24:45;;;;;;;;;;;;;;;;;;5039489;28;19916;-82
2023/02/14 09:27:11;;;;;;;;;;;;;;;;;;5040507;28;19921;-82
2023/02/14 09:29:37;;;;;;;;;;;;;;;;;;5037306;28;20385;-82
2023/02/14 09:32:03;;;;;;;;;;;;;;;;;;5058510;28;19920;-83
2023/02/14 09:34:29;;;;;;;;;;;;;;;;;;5054063;28;19931;-83
2023/02/14 09:36:55;;;;;;;;;;;;;;;;;;5022647;28;20363;-84
2023/02/14 09:39:21;;;;;;;;;;;;;;;;;;5032895;28;19921;-83
2023/02/14 09:41:47;;;;;;;;;;;;;;;;;;5052741;28;19909;-83
2023/02/14 09:44:13;;;;;;;;;;;;;;;;;;5054865;28;20291;-83
2023/02/14 09:46:39;;;;;;;;;;;;;;;;;;5030980;28;19955;-83
2023/02/14 09:49:05;;;;;;;;;;;;;;;;;;5058832;28;20260;-84
2023/02/14 09:51:30;;;;;;;;;;;;;;;;;;5059304;28;19919;-84
2023/02/14 09:53:56;;;;;;;;;;;;;;;;;;5059143;28;19908;-85
2023/02/14 09:56:22;;;;;;;;;;;;;;;;;;5031984;28;19910;-83
2023/02/14 09:58:48;;;;;;;;;;;;;;;;;;5032489;28;19913;-82
2023/02/14 10:01:14;;;;;;;;;;;;;;;;;;5034019;28;20387;-83
2023/02/14 10:03:40;;;;;;;;;;;;;;;;;;5034638;28;19948;-83
2023/02/14 10:06:06;;;;;;;;;;;;;;;;;;5032177;28;20176;-82
2023/02/14 10:08:32;;;;;;;;;;;;;;;;;;5016972;28;20009;-84
2023/02/14 10:10:58;;;;;;;;;;;;;;;;;;5020647;28;19916;-83
2023/02/14 10:13:23;;;;;;;;;;;;;;;;;;5034307;28;19910;-83
2023/02/14 10:15:49;;;;;;;;;;;;;;;;;;5015540;28;19932;-83
2023/02/14 10:18:15;;;;;;;;;;;;;;;;;;5033496;28;19909;-83
2023/02/14 10:20:41;;;;;;;;;;;;;;;;;;5033487;28;19927;-84
2023/02/14 10:23:07;;;;;;;;;;;;;;;;;;5016515;28;19963;-83
2023/02/14 10:25:33;;;;;;;;;;;;;;;;;;5017430;28;19916;-83
2023/02/14 10:27:59;;;;;;;;;;;;;;;;;;5035767;28;20279;-83
2023/02/14 10:30:25;;;;;;;;;;;;;;;;;;5035069;28;19917;-83
2023/02/14 10:32:51;;;;;;;;;;;;;;;;;;5034062;28;20335;-83
2023/02/14 10:35:16;;;;;;;;;;;;;;;;;;5035527;28;20283;-82
2023/02/14 10:37:42;;;;;;;;;;;;;;;;;;5016390;28;19910;-83
2023/02/14 10:40:08;;;;;;;;;;;;;;;;;;5015269;28;19917;-84
2023/02/14 10:42:34;;;;;;;;;;;;;;;;;;5017179;28;19910;-84
2023/02/14 10:45:00;;;;;;;;;;;;;;;;;;5021859;28;19928;-84
2023/02/14 10:47:26;;;;;;;;;;;;;;;;;;5038611;28;19944;-83
2023/02/14 10:49:52;;;;;;;;;;;;;;;;;;5038939;28;20007;-83
2023/02/14 10:52:18;;;;;;;;;;;;;;;;;;5037342;28;19967;-83
2023/02/14 10:54:44;;;;;;;;;;;;;;;;;;5052703;28;20387;-84
2023/02/14 10:57:09;;;;;;;;;;;;;;;;;;5058792;28;20086;-83
2023/02/14 10:59:35;;;;;;;;;;;;;;;;;;5058973;28;19913;-83
2023/02/14 11:02:01;;;;;;;;;;;;;;;;;;5059395;28;19912;-84
2023/02/14 11:04:27;;;;;;;;;;;;;;;;;;5058351;28;19949;-84
2023/02/14 11:06:53;;;;;;;;;;;;;;;;;;5021579;28;19913;-81
2023/02/14 11:09:19;;;;;;;;;;;;;;;;;;5041480;28;19916;-81
2023/02/14 11:11:45;;;;;;;;;;;;;;;;;;5041079;28;19909;-81
2023/02/14 11:14:11;;;;;;;;;;;;;;;;;;5039891;28;19924;-81
2023/02/14 11:16:38;;;;;;;;;;;;;;;;;;5040154;28;20288;-80
2023/02/14 11:19:04;;;;;;;;;;;;;;;;;;5040230;28;19920;-81
2023/02/14 11:21:32;;;;;;;;;;;;;;;;;;5040958;28;19909;-81
2023/02/14 11:23:58;;;;;;;;;;;;;;;;;;5046555;28;19948;-82
2023/02/14 11:26:24;;;;;;;;;;;;;;;;;;5044292;28;20367;-81
2023/02/14 11:28:49;;;;;;;;;;;;;;;;;;5039478;28;19982;-82
2023/02/14 11:31:15;;;;;;;;;;;;;;;;;;5055680;28;19920;-81
2023/02/14 11:33:41;;;;;;;;;;;;;;;;;;5060818;28;19988;-81
2023/02/14 11:36:07;;;;;;;;;;;;;;;;;;5030153;28;19917;-81
2023/02/14 11:38:35;;;;;;;;;;;;;;;;;;5041065;28;20403;-81
2023/02/14 11:41:01;;;;;;;;;;;;;;;;;;5051565;28;19959;-81
2023/02/14 11:43:27;;;;;;;;;;;;;;;;;;5041791;28;19913;-81
2023/02/14 11:45:52;;;;;;;;;;;;;;;;;;5051311;28;19999;-80
2023/02/14 11:48:18;;;;;;;;;;;;;;;;;;5043040;28;20039;-83
2023/02/14 11:50:44;;;;;;;;;;;;;;;;;;5064693;28;19901;-84
2023/02/14 11:53:11;;;;;;;;;;;;;;;;;;5068989;28;19931;-83
2023/02/14 11:55:37;;;;;;;;;;;;;;;;;;5031102;28;19914;-82
2023/02/14 11:58:02;;;;;;;;;;;;;;;;;;5017531;28;19924;-83
2023/02/14 12:00:30;;;;;;;;;;;;;;;;;;5024525;28;19917;-83
2023/02/14 12:02:56;;;;;;;;;;;;;;;;;;5020044;28;19908;-83
2023/02/14 12:05:22;;;;;;;;;;;;;;;;;;5035618;28;19920;-83
2023/02/14 12:07:47;;;;;;;;;;;;;;;;;;5035853;28;20334;-83
2023/02/14 12:10:16;;;;;;;;;;;;;;;;;;5034184;28;19913;-82
2023/02/14 12:12:42;;;;;;;;;;;;;;;;;;5036377;28;19960;-84
2023/02/14 12:15:11;;;;;;;;;;;;;;;;;;5020020;28;19909;-84
2023/02/14 12:17:37;;;;;;;;;;;;;;;;;;5038921;28;20375;-84
2023/02/14 12:20:03;;;;;;;;;;;;;;;;;;5039254;28;20015;-82
2023/02/14 12:22:29;;;;;;;;;;;;;;;;;;5039179;28;19987;-80
2023/02/14 12:24:54;;;;;;;;;;;;;;;;;;5039586;28;19928;-81
2023/02/14 12:27:21;;;;;;;;;;;;;;;;;;5038834;28;19913;-81
2023/02/14 12:29:47;;;;;;;;;;;;;;;;;;5039868;28;20449;-84
2023/02/14 12:32:13;;;;;;;;;;;;;;;;;;5039040;28;19909;-84
2023/02/14 12:34:38;;;;;;;;;;;;;;;;;;5036513;28;19909;-83
2023/02/14 12:37:04;;;;;;;;;;;;;;;;;;5034896;28;19957;-82
2023/02/14 12:39:30;;;;;;;;;;;;;;;;;;5035507;28;20017;-82
2023/02/14 12:41:58;;;;;;;;;;;;;;;;;;5034023;28;19913;-83
2023/02/14 12:44:24;;;;;;;;;;;;;;;;;;5017617;28;19954;-82
2023/02/14 12:46:50;;;;;;;;;;;;;;;;;;5034765;28;19991;-83
2023/02/14 12:49:16;;;;;;;;;;;;;;;;;;5022803;28;20004;-82
2023/02/14 12:51:42;;;;;;;;;;;;;;;;;;5014794;28;19976;-82
2023/02/14 12:54:08;;;;;;;;;;;;;;;;;;5017566;28;19910;-83
2023/02/14 12:56:34;;;;;;;;;;;;;;;;;;5015609;28;19971;-82
2023/02/14 12:59:00;;;;;;;;;;;;;;;;;;5031327;28;19960;-83
2023/02/14 13:01:26;;;;;;;;;;;;;;;;;;5032607;28;19936;-82
2023/02/14 13:03:52;;;;;;;;;;;;;;;;;;5035378;28;19913;-83
2023/02/14 13:06:18;;;;;;;;;;;;;;;;;;5017842;28;19909;-82
2023/02/14 13:08:44;;;;;;;;;;;;;;;;;;5015641;28;19909;-84
2023/02/14 13:11:09;;;;;;;;;;;;;;;;;;5013670;28;20042;-84
2023/02/14 13:13:35;;;;;;;;;;;;;;;;;;5014729;28;20324;-82
2023/02/14 13:16:01;;;;;;;;;;;;;;;;;;5014967;28;19913;-84
2023/02/14 13:18:27;;;;;;;;;;;;;;;;;;5015292;28;19985;-85
2023/02/14 13:20:53;;;;;;;;;;;;;;;;;;5047399;28;19924;-81
2023/02/14 13:23:19;;;;;;;;;;;;;;;;;;5057934;28;19909;-83
2023/02/14 13:25:48;;;;;;;;;;;;;;;;;;5058103;28;19916;-85
2023/02/14 13:28:14;;;;;;;;;;;;;;;;;;5039999;28;19916;-86
2023/02/14 13:30:41;;;;;;;;;;;;;;;;;;5047732;28;19913;-85
2023/02/14 13:33:07;;;;;;;;;;;;;;;;;;5039288;28;19917;-87
2023/02/14 13:35:33;;;;;;;;;;;;;;;;;;5038532;28;19986;-86
2023/02/14 13:37:59;;;;;;;;;;;;;;;;;;5020962;28;19932;-85
2023/02/14 13:40:25;;;;;;;;;;;;;;;;;;5021515;28;20011;-86
2023/02/14 13:42:51;;;;;;;;;;;;;;;;;;5020458;28;19909;-85
2023/02/14 13:45:17;;;;;;;;;;;;;;;;;;5020972;28;19909;-86
2023/02/14 13:47:43;;;;;;;;;;;;;;;;;;5039598;28;19909;-85
2023/02/14 13:50:09;;;;;;;;;;;;;;;;;;5039574;28;19920;-85
2023/02/14 13:52:35;;;;;;;;;;;;;;;;;;5040396;28;19909;-86
2023/02/14 13:55:00;;;;;;;;;;;;;;;;;;5037759;28;20007;-85
2023/02/14 13:57:28;;;;;;;;;;;;;;;;;;5037337;28;19909;-86
2023/02/14 13:59:54;;;;;;;;;;;;;;;;;;5020810;28;19913;-83
2023/02/14 14:02:20;;;;;;;;;;;;;;;;;;5040319;28;20381;-83
2023/02/14 14:04:46;;;;;;;;;;;;;;;;;;5036467;28;19909;-83
2023/02/14 14:07:12;;;;;;;;;;;;;;;;;;5037237;28;20330;-83
2023/02/14 14:09:38;;;;;;;;;;;;;;;;;;5036698;28;19918;-83
2023/02/14 14:12:04;;;;;;;;;;;;;;;;;;5036779;28;19939;-84
2023/02/14 14:14:35;;;;;;;;;;;;;;;;;;5033400;28;20303;-83
2023/02/14 14:17:01;;;;;;;;;;;;;;;;;;5036947;28;19913;-82
2023/02/14 14:19:27;;;;;;;;;;;;;;;;;;5036150;28;19925;-84
2023/02/14 14:21:52;;;;;;;;;;;;;;;;;;5017296;28;19920;-86
2023/02/14 14:24:18;;;;;;;;;;;;;;;;;;5039028;28;20314;-85
2023/02/14 14:26:44;;;;;;;;;;;;;;;;;;5039794;28;19909;-85
2023/02/14 14:29:10;;;;;;;;;;;;;;;;;;5036911;28;19924;-84
2023/02/14 14:31:36;;;;;;;;;;;;;;;;;;5035304;28;19912;-83
2023/02/14 14:34:02;;;;;;;;;;;;;;;;;;5051826;28;19913;-84
2023/02/14 14:36:28;;;;;;;;;;;;;;;;;;5045875;28;19935;-84
2023/02/14 14:38:54;;;;;;;;;;;;;;;;;;5015497;28;20007;-84
2023/02/14 14:41:20;;;;;;;;;;;;;;;;;;5017014;28;19909;-84
2023/02/14 14:43:45;;;;;;;;;;;;;;;;;;5014994;28;19909;-84
2023/02/14 14:46:11;;;;;;;;;;;;;;;;;;5032647;28;19920;-84
2023/02/14 14:48:37;;;;;;;;;;;;;;;;;;5038187;28;19994;-84
2023/02/14 14:51:03;;;;;;;;;;;;;;;;;;5054745;28;19913;-84
2023/02/14 14:53:29;;;;;;;;;;;;;;;;;;5031860;28;19936;-85
2023/02/14 14:55:55;;;;;;;;;;;;;;;;;;5033838;28;19940;-84
2023/02/14 14:58:21;;;;;;;;;;;;;;;;;;5031127;28;20379;-84
2023/02/14 15:00:47;;;;;;;;;;;;;;;;;;5031604;28;19961;-84
2023/02/14 15:03:13;;;;;;;;;;;;;;;;;;5038171;28;19924;-85
2023/02/14 15:05:39;;;;;;;;;;;;;;;;;;5048350;28;19994;-85
2023/02/14 15:08:05;;;;;;;;;;;;;;;;;;5044149;28;19921;-84
2023/02/14 15:10:31;;;;;;;;;;;;;;;;;;5032016;28;20008;-84
2023/02/14 15:15:42;;;;;;;;;;;;;;;;;;5037445;28;19920;-83
2023/02/14 15:18:07;;;;;;;;;;;;;;;;;;5035665;28;19913;-84
2023/02/14 15:20:35;;;;;;;;;;;;;;;;;;5029955;28;19917;-83
2023/02/14 15:23:02;;;;;;;;;;;;;;;;;;5033143;28;19924;-83
2023/02/14 15:25:28;;;;;;;;;;;;;;;;;;5030619;28;19929;-83
2023/02/14 15:27:54;;;;;;;;;;;;;;;;;;5026275;28;20394;-83
2023/02/14 15:30:22;;;;;;;;;;;;;;;;;;5050541;28;19917;-83
2023/02/14 15:32:48;;;;;;;;;;;;;;;;;;5055919;28;19916;-83
2023/02/14 15:35:15;;;;;;;;;;;;;;;;;;5049598;28;19913;-83
2023/02/14 15:37:40;;;;;;;;;;;;;;;;;;5036566;28;19920;-82
2023/02/14 15:40:07;;;;;;;;;;;;;;;;;;5027622;28;19921;-83
2023/02/14 15:42:34;;;;;;;;;;;;;;;;;;5021682;28;20485;-83
2023/02/14 15:45:00;;;;;;;;;;;;;;;;;;5031575;28;19913;-83
2023/02/14 15:47:28;;;;;;;;;;;;;;;;;;5038984;28;19915;-85
2023/02/14 15:49:54;;;;;;;;;;;;;;;;;;5039266;28;19909;-84
2023/02/14 15:52:20;;;;;;;;;;;;;;;;;;5041900;28;20233;-86
2023/02/14 15:54:46;;;;;;;;;;;;;;;;;;5044389;28;19909;-85
2023/02/14 15:57:12;;;;;;;;;;;;;;;;;;5044618;28;19969;-85
2023/02/14 15:59:40;;;;;;;;;;;;;;;;;;5026879;28;20367;-85
2023/02/14 16:02:06;;;;;;;;;;;;;;;;;;5043162;28;19913;-86
2023/02/14 16:04:32;;;;;;;;;;;;;;;;;;5041881;28;19932;-83
2023/02/14 16:06:58;;;;;;;;;;;;;;;;;;5049108;28;19913;-83
2023/02/14 16:09:24;;;;;;;;;;;;;;;;;;5048203;28;19913;-83
2023/02/14 16:11:51;;;;;;;;;;;;;;;;;;5040971;28;19917;-85
2023/02/14 16:14:17;;;;;;;;;;;;;;;;;;5040215;28;20371;-85
2023/02/14 16:16:43;;;;;;;;;;;;;;;;;;5041152;28;19980;-85
2023/02/14 16:19:09;;;;;;;;;;;;;;;;;;5043581;28;19917;-85
2023/02/14 16:21:35;;;;;;;;;;;;;;;;;;5044917;28;19909;-84
2023/02/14 16:24:00;;;;;;;;;;;;;;;;;;5043669;28;19914;-85
2023/02/14 16:26:26;;;;;;;;;;;;;;;;;;5037110;28;19920;-85
2023/02/14 16:28:52;;;;;;;;;;;;;;;;;;5037646;28;19944;-85
2023/02/14 16:31:18;;;;;;;;;;;;;;;;;;5034493;28;19921;-83
2023/02/14 16:33:44;;;;;;;;;;;;;;;;;;5031830;28;19913;-83
2023/02/14 16:36:11;;;;;;;;;;;;;;;;;;5029799;28;19921;-83
2023/02/14 16:38:37;;;;;;;;;;;;;;;;;;5034621;28;19960;-82
2023/02/14 16:41:03;;;;;;;;;;;;;;;;;;5031753;28;20357;-83
2023/02/14 16:43:28;;;;;;;;;;;;;;;;;;5033560;28;20287;-82
2023/02/14 16:45:54;;;;;;;;;;;;;;;;;;5035776;28;19918;-83
2023/02/14 16:48:20;;;;;;;;;;;;;;;;;;5026022;28;19960;-83
2023/02/14 16:50:46;;;;;;;;;;;;;;;;;;5031671;28;20375;-83
2023/02/14 16:53:12;;;;;;;;;;;;;;;;;;5033269;28;19909;-83
2023/02/14 16:55:38;;;;;;;;;;;;;;;;;;5021247;28;20011;-83
2023/02/14 16:58:04;;;;;;;;;;;;;;;;;;5042188;28;19938;-83
2023/02/14 17:00:30;;;;;;;;;;;;;;;;;;5051139;28;20382;-83